Map

Track Data

SID SEASON NUMBER BASIN SUBBASIN NAME ISO_TIME NATURE LAT LON WMO_WIND WMO_PRES WMO_AGENCY TRACK_TYPE DIST2LAND LANDFALL IFLAG USA_AGENCY USA_ATCF_ID USA_LAT USA_LON USA_RECORD USA_STATUS USA_WIND USA_PRES USA_SSHS USA_R34_NE USA_R34_SE USA_R34_SW USA_R34_NW USA_R50_NE USA_R50_SE USA_R50_SW USA_R50_NW USA_R64_NE USA_R64_SE USA_R64_SW USA_R64_NW USA_POCI USA_ROCI USA_RMW USA_EYE TOKYO_LAT TOKYO_LON TOKYO_GRADE TOKYO_WIND TOKYO_PRES TOKYO_R50_DIR TOKYO_R50_LONG TOKYO_R50_SHORT TOKYO_R30_DIR TOKYO_R30_LONG TOKYO_R30_SHORT TOKYO_LAND CMA_LAT CMA_LON CMA_CAT CMA_WIND CMA_PRES HKO_LAT HKO_LON HKO_CAT HKO_WIND HKO_PRES NEWDELHI_LAT NEWDELHI_LON NEWDELHI_GRADE NEWDELHI_WIND NEWDELHI_PRES NEWDELHI_CI NEWDELHI_DP NEWDELHI_POCI REUNION_LAT REUNION_LON REUNION_TYPE REUNION_WIND REUNION_PRES REUNION_TNUM REUNION_CI REUNION_RMW REUNION_R34_NE REUNION_R34_SE REUNION_R34_SW REUNION_R34_NW REUNION_R50_NE REUNION_R50_SE REUNION_R50_SW REUNION_R50_NW REUNION_R64_NE REUNION_R64_SE REUNION_R64_SW REUNION_R64_NW BOM_LAT BOM_LON BOM_TYPE BOM_WIND BOM_PRES BOM_TNUM BOM_CI BOM_RMW BOM_R34_NE BOM_R34_SE BOM_R34_SW BOM_R34_NW BOM_R50_NE BOM_R50_SE BOM_R50_SW BOM_R50_NW BOM_R64_NE BOM_R64_SE BOM_R64_SW BOM_R64_NW BOM_ROCI BOM_POCI BOM_EYE BOM_POS_METHOD BOM_PRES_METHOD NADI_LAT NADI_LON NADI_CAT NADI_WIND NADI_PRES WELLINGTON_LAT WELLINGTON_LON WELLINGTON_WIND WELLINGTON_PRES DS824_LAT DS824_LON DS824_STAGE DS824_WIND DS824_PRES TD9636_LAT TD9636_LON TD9636_STAGE TD9636_WIND TD9636_PRES TD9635_LAT TD9635_LON TD9635_WIND TD9635_PRES TD9635_ROCI NEUMANN_LAT NEUMANN_LON NEUMANN_CLASS NEUMANN_WIND NEUMANN_PRES MLC_LAT MLC_LON MLC_CLASS MLC_WIND MLC_PRES USA_GUST BOM_GUST BOM_GUST_PER REUNION_GUST REUNION_GUST_PER USA_SEAHGT USA_SEARAD_NE USA_SEARAD_SE USA_SEARAD_SW USA_SEARAD_NW STORM_SPEED STORM_DIR
1948278N25157 1948 74 WP MM MARTHA 1948-10-04 00:00:00 TS 25.0000 157.000 main 1946 1908 O________OOO__ jtwc_wp WP181948 25.0000 157.000 85 2 25.0000 157.000 TC 85 25.0000 157.000 3 85 25.0000 157.000 85 957 420 9 270
1948278N25157 1948 74 WP MM MARTHA 1948-10-04 03:00:00 TS 24.9981 156.503 main 1908 1871 P________PPP__ WP181948 25.0027 156.518 87 2 25.0027 156.518 TC 87 24.9843 156.460 3 88 25.0027 156.518 87 954 390 9 270
1948278N25157 1948 74 WP MM MARTHA 1948-10-04 06:00:00 TS 24.9935 155.979 main 1871 1827 O________OPO__ jtwc_wp WP181948 25.0000 156.000 90 2 25.0000 156.000 TC 90 24.9742 155.917 3 92 25.0000 156.000 90 952 360 10 269
1948278N25157 1948 74 WP MM MARTHA 1948-10-04 09:00:00 TS 24.9885 155.408 main 1827 1785 P________PPP__ WP181948 24.9923 155.422 95 2 24.9923 155.422 TC 95 24.9770 155.365 3 96 24.9923 155.422 95 950 390 11 270
1948278N25157 1948 74 WP MM MARTHA 1948-10-04 12:00:00 TS 25.0000 154.800 main 1785 1742 O________OOO__ jtwc_wp WP181948 25.0000 154.800 100 3 25.0000 154.800 TC 100 25.0000 154.800 4 100 25.0000 154.800 100 949 420 11 273
1948278N25157 1948 74 WP MM MARTHA 1948-10-04 15:00:00 TS 25.0435 154.167 main 1742 1693 P________PPP__ WP181948 25.0424 154.150 95 2 25.0424 154.150 TC 95 25.0468 154.217 4 97 25.0424 154.150 95 952 450 12 275
1948278N25157 1948 74 WP MM MARTHA 1948-10-04 18:00:00 TS 25.1015 153.528 main 1685 1642 O________OPO__ jtwc_wp WP181948 25.1000 153.500 90 2 25.1000 153.500 TC 90 25.1060 153.611 4 95 25.1000 153.500 90 956 480 11 276
1948278N25157 1948 74 WP MM MARTHA 1948-10-04 21:00:00 TS 25.1637 152.941 main 1635 1594 P________PPP__ WP181948 25.1641 152.930 90 2 25.1641 152.930 TC 90 25.1622 152.974 4 92 25.1641 152.930 90 958 480 11 275
1948278N25157 1948 74 WP MM MARTHA 1948-10-05 00:00:00 TS 25.2000 152.300 main 1594 1540 O________OOO__ jtwc_wp WP181948 25.2000 152.300 90 2 25.2000 152.300 TC 90 25.2000 152.300 4 90 25.2000 152.300 90 960 480 13 270
1948278N25157 1948 74 WP MM MARTHA 1948-10-05 03:00:00 TS 25.1670 151.478 main 1540 1497 P________PPP__ WP181948 25.1581 151.457 90 2 25.1581 151.457 TC 90 25.1936 151.541 4 90 25.1581 151.457 90 960 510 15 267
1948278N25157 1948 74 WP MM MARTHA 1948-10-05 06:00:00 TS 25.1167 150.639 main 1491 1454 O________OPO__ jtwc_wp WP181948 25.1000 150.600 90 2 25.1000 150.600 TC 90 25.1667 150.754 4 90 25.1000 150.600 90 961 540 14 268
1948278N25157 1948 74 WP MM MARTHA 1948-10-05 09:00:00 TS 25.1075 149.921 main 1448 1412 P________PPP__ WP181948 25.0996 149.898 90 2 25.0996 149.898 TC 90 25.1312 149.991 4 90 25.0996 149.898 90 961 510 12 269
1948278N25157 1948 74 WP MM MARTHA 1948-10-05 12:00:00 TS 25.1000 149.300 main 1412 1390 O________OOO__ jtwc_wp WP181948 25.1000 149.300 90 2 25.1000 149.300 TC 90 25.1000 149.300 4 90 25.1000 149.300 90 961 480 11 266
1948278N25157 1948 74 WP MM MARTHA 1948-10-05 15:00:00 TS 25.0372 148.754 main 1393 1366 P________PPP__ WP181948 25.0422 148.770 90 2 25.0422 148.770 TC 90 25.0224 148.708 4 87 25.0422 148.770 90 961 480 9 263
1948278N25157 1948 74 WP MM MARTHA 1948-10-05 18:00:00 TS 24.9909 148.275 main 1366 1339 O________OPO__ jtwc_wp WP181948 25.0000 148.300 90 2 25.0000 148.300 TC 90 24.9636 148.199 4 85 25.0000 148.300 90 961 480 8 266
1948278N25157 1948 74 WP MM MARTHA 1948-10-05 21:00:00 TS 24.9800 147.823 main 1339 1308 P________PPP__ WP181948 24.9823 147.842 85 2 24.9823 147.842 TC 85 24.9730 147.765 4 82 24.9823 147.842 85 960 450 8 278
1948278N25157 1948 74 WP MM MARTHA 1948-10-06 00:00:00 TS 25.1000 147.400 main 1308 1259 O________OOO__ jtwc_wp WP181948 25.1000 147.400 80 1 25.1000 147.400 TC 80 25.1000 147.400 4 80 25.1000 147.400 80 960 420 9 299
1948278N25157 1948 74 WP MM MARTHA 1948-10-06 03:00:00 TS 25.4247 146.927 main 1254 1200 P________PPP__ WP181948 25.4402 146.891 77 1 25.4402 146.891 TC 77 25.3780 147.034 4 78 25.4402 146.891 77 959 390 11 315
1948278N25157 1948 74 WP MM MARTHA 1948-10-06 06:00:00 TS 25.8693 146.559 main 1190 1142 O________OPO__ jtwc_wp WP181948 25.9000 146.500 75 1 25.9000 146.500 TC 75 25.7770 146.738 4 77 25.9000 146.500 75 959 360 10 333
1948278N25157 1948 74 WP MM MARTHA 1948-10-06 09:00:00 TS 26.3167 146.411 main 1142 1095 P________PPP__ WP181948 26.3348 146.375 75 1 26.3348 146.375 TC 75 26.2625 146.522 4 76 26.3348 146.375 75 958 330 9 351
1948278N25157 1948 74 WP MM MARTHA 1948-10-06 12:00:00 TS 26.8000 146.400 main 1095 1048 O________OOO__ jtwc_wp WP181948 26.8000 146.400 75 1 26.8000 146.400 TC 75 26.8000 146.400 4 75 26.8000 146.400 75 957 300 10 359
1948278N25157 1948 74 WP MM MARTHA 1948-10-06 15:00:00 TS 27.2800 146.391 main 1048 1001 P________PPP__ WP181948 27.2700 146.428 77 1 27.2700 146.428 TC 77 27.3101 146.283 4 76 27.2700 146.428 77 955 270 10 2
1948278N25157 1948 74 WP MM MARTHA 1948-10-06 18:00:00 TS 27.8162 146.443 main 1001 951 O________OPO__ jtwc_wp WP181948 27.8000 146.500 80 1 27.8000 146.500 TC 80 27.8650 146.270 4 77 27.8000 146.500 80 953 240 11 4
1948278N25157 1948 74 WP MM MARTHA 1948-10-06 21:00:00 TS 28.4189 146.478 main 951 901 P________PPP__ WP181948 28.4044 146.505 80 1 28.4044 146.505 TC 80 28.4625 146.397 4 78 28.4044 146.505 80 950 210 13 10
1948278N25157 1948 74 WP MM MARTHA 1948-10-07 00:00:00 TS 29.1000 146.700 main 901 875 O________OOO__ jtwc_wp WP181948 29.1000 146.700 80 1 29.1000 146.700 TC 80 29.1000 146.700 4 80 29.1000 146.700 80 947 180 16 26
1948278N25157 1948 74 WP MM MARTHA 1948-10-07 03:00:00 TS 29.8799 147.291 main 874 870 P________PPP__ WP181948 29.9081 147.308 90 2 29.9081 147.308 TC 90 29.7952 147.239 4 82 29.9081 147.308 90 945 240 20 37
1948278N25157 1948 74 WP MM MARTHA 1948-10-07 06:00:00 TS 30.6548 148.062 main 870 869 O________OPO__ jtwc_wp WP181948 30.7000 148.100 100 3 30.7000 148.100 TC 100 30.5191 147.949 4 85 30.7000 148.100 100 943 300 19 42
1948278N25157 1948 74 WP MM MARTHA 1948-10-07 09:00:00 TS 31.3112 148.796 main 879 879 P________PPP__ WP181948 31.3373 148.816 95 2 31.3373 148.816 TC 95 31.2329 148.736 4 87 31.3373 148.816 95 944 270 18 45
1948278N25157 1948 74 WP MM MARTHA 1948-10-07 12:00:00 TS 31.9000 149.500 main 898 898 O________OOO__ jtwc_wp WP181948 31.9000 149.500 90 2 31.9000 149.500 TC 90 31.9000 149.500 4 90 31.9000 149.500 90 946 240 16 44
1948278N25157 1948 74 WP MM MARTHA 1948-10-07 15:00:00 TS 32.4723 150.138 main 917 917 P________PPP__ WP181948 32.4647 150.131 80 1 32.4647 150.131 TC 80 32.4951 150.160 4 82 32.4647 150.131 80 951 240 15 43
1948278N25157 1948 74 WP MM MARTHA 1948-10-07 18:00:00 TS 33.0065 150.705 main 946 946 O________OPO__ jtwc_wp WP181948 33.0000 150.700 70 1 33.0000 150.700 TC 70 33.0302 150.725 4 75 33.0000 150.700 70 956 240 13 42
1948278N25157 1948 74 WP MM MARTHA 1948-10-07 21:00:00 TS 33.4701 151.204 main 971 971 P________PPP__ WP181948 33.4468 151.195 65 1 33.4468 151.195 TC 65 33.5253 151.227 4 67 33.5079 151.214 65 964 240 13 40
1948278N25157 1948 74 WP MM MARTHA 1948-10-08 00:00:00 TS 34.0000 151.700 main 1000 1000 O________OOO__ jtwc_wp WP181948 34.0000 151.700 60 0 34.0000 151.700 TC 60 34.0000 151.700 2 60 34.0000 151.700 60 972 240 17 31
1948278N25157 1948 74 WP MM MARTHA 1948-10-08 03:00:00 TS 34.9215 152.274 main 1032 1027 P________P____ WP181948 34.9215 152.274 55 0 34.9215 152.274 TC 55 2 21 31
1948278N25157 1948 74 WP MM MARTHA 1948-10-08 06:00:00 TS 35.8000 153.000 main 1041 1035 O________O____ jtwc_wp WP181948 35.8000 153.000 50 0 35.8000 153.000 TC 50 2 19 47
1948278N25157 1948 74 WP MM MARTHA 1948-10-08 09:00:00 TS 36.2103 153.951 main 1063 1060 P________P____ WP181948 36.2103 153.951 45 0 36.2103 153.951 TC 45 2 18 67
1948278N25157 1948 74 WP MM MARTHA 1948-10-08 12:00:00 TS 36.5000 155.000 main 1098 1092 O________O____ jtwc_wp WP181948 36.5000 155.000 40 0 36.5000 155.000 TC 40 18 66
1948278N25157 1948 74 WP MM MARTHA 1948-10-08 15:00:00 TS 36.9435 156.013 main 1100 1079 P________P____ WP181948 36.9435 156.013 37 0 36.9435 156.013 TC 37 19 58
1948278N25157 1948 74 WP MM MARTHA 1948-10-08 18:00:00 TS 37.5000 157.000 main 1084 O________O____ jtwc_wp WP181948 37.5000 157.000 35 0 37.5000 157.000 TC 35 19 55

Digital Typhoon Data and Search

About IBTrACS Database

This database is a web-friendly format of International Best Track Archive for Climate Stewardship (IBTrACS), a global best track data archive curated by NOAA dating back to 1842.

Updated: 2021-11-26